Time;durP1;ratioP1;P1;durP2;ratioP2;P2;SDS_P1;SDS_P2;PMS_P1;PMS_P2;Temp;Humidity;BMP_temperature;BMP_pressure;BME280_temperature;BME280_humidity;BME280_pressure;Samples;Min_cycle;Max_cycle;Signal;HPM_P1;HPM_P2
2023/01/20 00:00:32;;;;;;;10.77;3.80;;;;;;;;;;4907013;29;20134;-87
2023/01/20 00:02:59;;;;;;;4.75;2.53;;;;;;;;;;4889468;29;20179;-87
2023/01/20 00:05:25;;;;;;;2.40;2.20;;;;;;;;;;4921152;29;20119;-87
2023/01/20 00:07:51;;;;;;;3.78;2.45;;;;;;;;;;4935363;29;20052;-87
2023/01/20 00:10:23;;;;;;;6.53;2.53;;;;;;;;;;4920379;29;20065;-87
2023/01/20 00:12:49;;;;;;;3.72;2.65;;;;;;;;;;4919519;29;20055;-86
2023/01/20 00:15:16;;;;;;;2.72;2.30;;;;;;;;;;4935181;29;20074;-87
2023/01/20 00:17:42;;;;;;;4.20;2.42;;;;;;;;;;4919111;29;20040;-86
2023/01/20 00:20:08;;;;;;;2.30;2.10;;;;;;;;;;4935683;29;20052;-89
2023/01/20 00:22:40;;;;;;;3.85;2.40;;;;;;;;;;4934897;29;20055;-87
2023/01/20 00:25:07;;;;;;;2.47;2.22;;;;;;;;;;4919346;29;20040;-87
2023/01/20 00:27:33;;;;;;;3.40;2.90;;;;;;;;;;4906459;29;20489;-87
2023/01/20 00:29:59;;;;;;;6.13;2.85;;;;;;;;;;4906851;29;20047;-87
2023/01/20 00:32:25;;;;;;;2.92;2.42;;;;;;;;;;4906997;29;20400;-87
2023/01/20 00:34:54;;;;;;;4.35;2.50;;;;;;;;;;4938743;29;20404;-87
2023/01/20 00:37:20;;;;;;;2.95;2.35;;;;;;;;;;4906126;29;20044;-87
2023/01/20 00:39:46;;;;;;;3.70;2.60;;;;;;;;;;4939806;29;20079;-88
2023/01/20 00:42:12;;;;;;;3.90;2.78;;;;;;;;;;4941288;29;20393;-87
2023/01/20 00:44:38;;;;;;;2.83;2.63;;;;;;;;;;4907917;29;20048;-87
2023/01/20 00:47:04;;;;;;;2.78;2.40;;;;;;;;;;4923621;29;20043;-87
2023/01/20 00:49:30;;;;;;;5.13;3.38;;;;;;;;;;4923672;29;20079;-89
2023/01/20 00:51:57;;;;;;;5.65;4.03;;;;;;;;;;4938779;29;20056;-87
2023/01/20 00:54:23;;;;;;;16.58;5.78;;;;;;;;;;4940442;29;20051;-87
2023/01/20 00:56:49;;;;;;;35.75;5.88;;;;;;;;;;4921955;29;20409;-88
2023/01/20 00:59:15;;;;;;;31.23;6.10;;;;;;;;;;4934341;29;20059;-89
2023/01/20 01:01:41;;;;;;;34.70;6.25;;;;;;;;;;4902891;29;20142;-88
2023/01/20 01:04:07;;;;;;;18.50;6.47;;;;;;;;;;4919203;29;20048;-87
2023/01/20 01:06:33;;;;;;;15.43;7.10;;;;;;;;;;4922063;29;20048;-87
2023/01/20 01:08:59;;;;;;;10.68;6.07;;;;;;;;;;4906215;29;20047;-87
2023/01/20 01:11:25;;;;;;;21.50;6.45;;;;;;;;;;4921945;29;20092;-87
2023/01/20 01:13:51;;;;;;;23.98;7.13;;;;;;;;;;4921819;29;20051;-87
2023/01/20 01:16:17;;;;;;;51.38;10.95;;;;;;;;;;4937569;29;20046;-87
2023/01/20 01:18:43;;;;;;;25.77;7.80;;;;;;;;;;4922298;29;20058;-91
2023/01/20 01:21:11;;;;;;;90.30;10.73;;;;;;;;;;4921677;29;20051;-88
2023/01/20 01:23:37;;;;;;;19.98;8.60;;;;;;;;;;4922043;29;20059;-89
2023/01/20 01:26:03;;;;;;;16.77;8.40;;;;;;;;;;4921967;29;20043;-89
2023/01/20 01:28:29;;;;;;;27.75;8.90;;;;;;;;;;4906284;29;20081;-88
2023/01/20 01:30:59;;;;;;;26.52;8.45;;;;;;;;;;4921667;29;20062;-87
2023/01/20 01:33:25;;;;;;;32.28;9.98;;;;;;;;;;4921675;29;20050;-88
2023/01/20 01:35:55;;;;;;;25.85;10.25;;;;;;;;;;4937386;29;20047;-88
2023/01/20 01:38:21;;;;;;;23.75;8.75;;;;;;;;;;4921695;29;20052;-87
2023/01/20 01:40:50;;;;;;;12.48;8.05;;;;;;;;;;4905689;29;20044;-87
2023/01/20 01:43:36;;;;;;;11.38;7.90;;;;;;;;;;4906336;29;20397;-89
2023/01/20 01:46:02;;;;;;;14.48;8.73;;;;;;;;;;4922014;29;20441;-87
2023/01/20 01:48:33;;;;;;;13.05;8.52;;;;;;;;;;4921331;29;20051;-87
2023/01/20 01:51:02;;;;;;;13.02;8.15;;;;;;;;;;4921014;29;20048;-90
2023/01/20 01:53:30;;;;;;;11.02;8.02;;;;;;;;;;4920904;29;20095;-90
2023/01/20 01:55:58;;;;;;;11.73;7.75;;;;;;;;;;4936692;29;20044;-87
2023/01/20 01:58:27;;;;;;;11.75;8.27;;;;;;;;;;4936715;29;20052;-88
2023/01/20 02:00:55;;;;;;;11.82;8.10;;;;;;;;;;4921003;29;20055;-88
2023/01/20 02:03:22;;;;;;;17.05;8.45;;;;;;;;;;4920810;29;20055;-88
2023/01/20 02:05:49;;;;;;;13.13;8.07;;;;;;;;;;4905344;29;20453;-88
2023/01/20 02:08:15;;;;;;;10.15;7.43;;;;;;;;;;4937376;29;20558;-90
2023/01/20 02:10:41;;;;;;;14.73;7.95;;;;;;;;;;4922388;29;20075;-87
2023/01/20 02:13:07;;;;;;;15.32;9.50;;;;;;;;;;4922171;29;20047;-87
2023/01/20 02:15:38;;;;;;;12.75;7.88;;;;;;;;;;4938464;29;20583;-87
2023/01/20 02:18:04;;;;;;;14.48;7.97;;;;;;;;;;4939309;29;20079;-88
2023/01/20 02:20:37;;;;;;;12.43;7.28;;;;;;;;;;4922253;29;20051;-87
2023/01/20 02:23:06;;;;;;;13.07;8.13;;;;;;;;;;4925288;29;20051;-87
2023/01/20 02:25:42;;;;;;;11.75;7.65;;;;;;;;;;4926298;29;20051;-87
2023/01/20 02:28:30;;;;;;;16.35;7.82;;;;;;;;;;4942624;29;20504;-87
2023/01/20 02:31:13;;;;;;;11.95;7.03;;;;;;;;;;4926072;29;20054;-87
2023/01/20 02:33:51;;;;;;;13.02;8.32;;;;;;;;;;4925914;29;20054;-86
2023/01/20 02:36:39;;;;;;;11.77;7.32;;;;;;;;;;4941436;29;20094;-87
2023/01/20 02:39:31;;;;;;;11.35;7.13;;;;;;;;;;4960024;29;20035;-87
2023/01/20 02:42:08;;;;;;;12.55;8.48;;;;;;;;;;4938454;29;20055;-87
2023/01/20 02:44:34;;;;;;;11.98;7.85;;;;;;;;;;4929408;29;20138;-87
2023/01/20 02:47:09;;;;;;;11.43;7.68;;;;;;;;;;4928523;29;20047;-87
2023/01/20 02:49:37;;;;;;;11.38;7.35;;;;;;;;;;4944458;29;20047;-87
2023/01/20 02:52:10;;;;;;;16.52;8.00;;;;;;;;;;4928922;29;20567;-87
2023/01/20 02:54:38;;;;;;;9.97;6.50;;;;;;;;;;4961805;29;20052;-87
2023/01/20 02:57:06;;;;;;;10.65;7.22;;;;;;;;;;4959363;29;20291;-87
2023/01/20 02:59:36;;;;;;;12.07;7.32;;;;;;;;;;4940026;29;20464;-88
2023/01/20 03:02:08;;;;;;;12.88;7.85;;;;;;;;;;4939876;29;20047;-87
2023/01/20 03:04:38;;;;;;;10.70;6.45;;;;;;;;;;4923200;29;20082;-86
2023/01/20 03:07:04;;;;;;;13.23;8.30;;;;;;;;;;4923816;29;20047;-88
2023/01/20 03:09:34;;;;;;;11.32;7.82;;;;;;;;;;4939573;29;20551;-88
2023/01/20 03:12:03;;;;;;;11.85;7.43;;;;;;;;;;4923586;29;20055;-87
2023/01/20 03:14:29;;;;;;;14.05;9.60;;;;;;;;;;4940904;29;20527;-87
2023/01/20 03:16:55;;;;;;;13.40;8.30;;;;;;;;;;4923565;29;20047;-87
2023/01/20 03:19:21;;;;;;;14.00;9.38;;;;;;;;;;4938884;29;20061;-89
2023/01/20 03:21:48;;;;;;;11.60;7.63;;;;;;;;;;4906842;29;20051;-88
2023/01/20 03:24:14;;;;;;;16.80;8.50;;;;;;;;;;4938424;29;20522;-87
2023/01/20 03:26:40;;;;;;;15.65;9.10;;;;;;;;;;4955842;28;20066;-87
2023/01/20 03:29:08;;;;;;;16.80;8.75;;;;;;;;;;4922678;29;20047;-87
2023/01/20 03:31:36;;;;;;;15.18;9.15;;;;;;;;;;4955995;29;20399;-90
2023/01/20 03:34:04;;;;;;;12.98;8.88;;;;;;;;;;4955834;29;20082;-87
2023/01/20 03:36:31;;;;;;;15.18;9.77;;;;;;;;;;4938380;29;20050;-89
2023/01/20 03:38:58;;;;;;;14.70;9.32;;;;;;;;;;4922543;29;20047;-87
2023/01/20 03:41:24;;;;;;;18.75;10.68;;;;;;;;;;4955859;29;20043;-87
2023/01/20 03:43:50;;;;;;;18.92;11.23;;;;;;;;;;4922784;29;20058;-87
2023/01/20 03:46:25;;;;;;;17.80;10.48;;;;;;;;;;4938276;29;20044;-87
2023/01/20 03:48:57;;;;;;;20.83;11.32;;;;;;;;;;4922538;29;20534;-87
2023/01/20 03:51:30;;;;;;;20.02;10.80;;;;;;;;;;4922235;29;20047;-89
2023/01/20 03:54:00;;;;;;;18.85;11.88;;;;;;;;;;4938715;29;20389;-87
2023/01/20 03:56:35;;;;;;;21.35;12.77;;;;;;;;;;4955302;29;20097;-90
2023/01/20 03:59:02;;;;;;;22.83;13.35;;;;;;;;;;4923209;29;20059;-90
2023/01/20 04:01:36;;;;;;;20.75;11.55;;;;;;;;;;4922316;29;20492;-90
2023/01/20 04:04:03;;;;;;;25.45;12.93;;;;;;;;;;4922436;29;20055;-87
2023/01/20 04:06:31;;;;;;;20.38;10.30;;;;;;;;;;4938212;29;20129;-89
2023/01/20 04:09:09;;;;;;;24.83;12.45;;;;;;;;;;4922142;29;20131;-87
2023/01/20 04:11:35;;;;;;;20.55;12.77;;;;;;;;;;4955282;29;20047;-87
2023/01/20 04:14:01;;;;;;;22.85;13.15;;;;;;;;;;4922265;29;20078;-88
2023/01/20 04:16:27;;;;;;;20.55;12.48;;;;;;;;;;4922512;29;20137;-89
2023/01/20 04:18:54;;;;;;;24.20;12.38;;;;;;;;;;4922547;29;20164;-89
2023/01/20 04:21:33;;;;;;;22.08;12.60;;;;;;;;;;4922255;29;20066;-87
2023/01/20 04:24:16;;;;;;;24.73;13.73;;;;;;;;;;4938550;29;20051;-88
2023/01/20 04:26:42;;;;;;;25.53;11.57;;;;;;;;;;4922616;29;20068;-89
2023/01/20 04:29:09;;;;;;;28.85;12.02;;;;;;;;;;4922724;29;20058;-88
2023/01/20 04:31:35;;;;;;;34.28;14.50;;;;;;;;;;4921796;29;20047;-87
2023/01/20 04:34:01;;;;;;;30.95;14.70;;;;;;;;;;4921906;29;20052;-88
2023/01/20 04:36:28;;;;;;;31.88;13.18;;;;;;;;;;4922723;29;20394;-90
2023/01/20 04:38:54;;;;;;;31.90;14.00;;;;;;;;;;4923569;29;20047;-89
2023/01/20 04:41:20;;;;;;;26.58;14.88;;;;;;;;;;4927063;29;20066;-89
2023/01/20 04:43:46;;;;;;;25.55;13.40;;;;;;;;;;4927238;29;20079;-89
2023/01/20 04:46:13;;;;;;;28.42;13.50;;;;;;;;;;4928709;29;20054;-88
2023/01/20 04:48:39;;;;;;;33.47;15.30;;;;;;;;;;4929786;29;20515;-91
2023/01/20 04:51:06;;;;;;;26.38;13.50;;;;;;;;;;4930586;29;20051;-91
2023/01/20 04:53:32;;;;;;;35.10;13.40;;;;;;;;;;4929801;29;20146;-89
2023/01/20 04:55:58;;;;;;;25.95;13.18;;;;;;;;;;4943449;29;20519;-88
2023/01/20 04:58:24;;;;;;;25.02;12.07;;;;;;;;;;4927624;29;20051;-88
2023/01/20 05:00:50;;;;;;;26.58;12.68;;;;;;;;;;4925905;29;20043;-88
2023/01/20 05:03:17;;;;;;;32.67;11.65;;;;;;;;;;4925474;29;20051;-87
2023/01/20 05:05:43;;;;;;;28.50;13.45;;;;;;;;;;4925630;29;20395;-88
2023/01/20 05:08:09;;;;;;;27.38;11.90;;;;;;;;;;4925446;29;20408;-88
2023/01/20 05:10:35;;;;;;;28.70;12.48;;;;;;;;;;4941202;29;20043;-89
2023/01/20 05:13:01;;;;;;;25.80;12.48;;;;;;;;;;4925366;29;20054;-88
2023/01/20 05:15:27;;;;;;;23.52;13.35;;;;;;;;;;4941188;29;20404;-88
2023/01/20 05:17:53;;;;;;;20.58;9.88;;;;;;;;;;4925246;29;20046;-88
2023/01/20 05:20:19;;;;;;;24.23;13.30;;;;;;;;;;4909198;29;20050;-88
2023/01/20 05:22:46;;;;;;;27.48;12.30;;;;;;;;;;4924607;29;20059;-88
2023/01/20 05:25:13;;;;;;;30.60;13.13;;;;;;;;;;4940615;29;20240;-89
2023/01/20 05:27:39;;;;;;;26.27;13.00;;;;;;;;;;4940624;29;20047;-88
2023/01/20 05:30:05;;;;;;;24.73;12.90;;;;;;;;;;4940584;29;20528;-88
2023/01/20 05:32:32;;;;;;;26.77;13.95;;;;;;;;;;4924607;29;20516;-88
2023/01/20 05:34:58;;;;;;;24.73;11.55;;;;;;;;;;4940448;29;20558;-89
2023/01/20 05:37:24;;;;;;;26.20;13.20;;;;;;;;;;4924654;29;20524;-89
2023/01/20 05:39:50;;;;;;;21.40;11.80;;;;;;;;;;4940454;29;20492;-88
2023/01/20 05:42:16;;;;;;;24.27;13.13;;;;;;;;;;4924678;29;20051;-88
2023/01/20 05:44:42;;;;;;;28.90;12.60;;;;;;;;;;4925090;29;20043;-88
2023/01/20 05:47:08;;;;;;;27.83;13.27;;;;;;;;;;4924783;29;20053;-90
2023/01/20 05:49:34;;;;;;;22.58;11.75;;;;;;;;;;4924463;29;20047;-88
2023/01/20 05:52:00;;;;;;;24.27;12.98;;;;;;;;;;4923256;29;20500;-88
2023/01/20 05:54:26;;;;;;;28.75;11.93;;;;;;;;;;4924630;29;20047;-89
2023/01/20 05:56:52;;;;;;;29.73;12.75;;;;;;;;;;4924887;29;20044;-88
2023/01/20 05:59:18;;;;;;;27.35;14.13;;;;;;;;;;4940304;29;20051;-89
2023/01/20 06:01:44;;;;;;;26.70;14.30;;;;;;;;;;4924378;29;20115;-88
2023/01/20 06:04:11;;;;;;;27.48;13.63;;;;;;;;;;4924827;29;20519;-90
2023/01/20 06:06:37;;;;;;;27.33;13.40;;;;;;;;;;4924784;29;20050;-91
2023/01/20 06:09:03;;;;;;;28.45;13.65;;;;;;;;;;4940793;29;20047;-89
2023/01/20 06:11:29;;;;;;;30.85;14.05;;;;;;;;;;4924196;29;20090;-90
2023/01/20 06:13:55;;;;;;;24.77;13.32;;;;;;;;;;4924239;29;20058;-90
2023/01/20 06:16:21;;;;;;;27.00;12.88;;;;;;;;;;4924162;29;20253;-89
2023/01/20 06:18:47;;;;;;;27.70;14.02;;;;;;;;;;4924171;29;20412;-89
2023/01/20 06:21:14;;;;;;;27.10;12.80;;;;;;;;;;4924009;29;20114;-89
2023/01/20 06:23:40;;;;;;;27.27;12.25;;;;;;;;;;4939649;29;20065;-89
2023/01/20 06:26:08;;;;;;;23.95;13.90;;;;;;;;;;4923815;29;20519;-89
2023/01/20 06:28:34;;;;;;;26.75;14.18;;;;;;;;;;4923875;29;20055;-89
2023/01/20 06:31:11;;;;;;;23.90;13.48;;;;;;;;;;4924218;29;20053;-91
2023/01/20 06:33:38;;;;;;;25.77;13.30;;;;;;;;;;4940034;29;20526;-91
2023/01/20 06:36:04;;;;;;;25.05;13.40;;;;;;;;;;4939485;29;20043;-89
2023/01/20 06:38:31;;;;;;;24.83;15.85;;;;;;;;;;4939504;29;20051;-89
2023/01/20 06:40:58;;;;;;;30.73;14.15;;;;;;;;;;4923483;29;20094;-89
2023/01/20 06:43:24;;;;;;;25.17;13.43;;;;;;;;;;4924183;29;20047;-88
2023/01/20 06:45:50;;;;;;;30.33;14.90;;;;;;;;;;4923832;29;20086;-89
2023/01/20 06:48:17;;;;;;;33.67;13.98;;;;;;;;;;4923558;29;20083;-90
2023/01/20 06:50:43;;;;;;;27.55;14.85;;;;;;;;;;4924163;29;20445;-89
2023/01/20 06:53:10;;;;;;;36.35;15.75;;;;;;;;;;4939907;29;20408;-88
2023/01/20 06:55:36;;;;;;;31.42;16.02;;;;;;;;;;4939749;29;20087;-90
2023/01/20 06:58:02;;;;;;;28.63;16.80;;;;;;;;;;4939634;29;20046;-90
2023/01/20 07:00:28;;;;;;;26.23;15.18;;;;;;;;;;4923427;29;20130;-90
2023/01/20 07:02:54;;;;;;;31.65;15.18;;;;;;;;;;4923100;29;20043;-88
2023/01/20 07:05:20;;;;;;;28.50;15.10;;;;;;;;;;4923275;29;20044;-88
2023/01/20 07:07:46;;;;;;;27.95;14.85;;;;;;;;;;4922941;29;20199;-88
2023/01/20 07:10:12;;;;;;;26.08;12.93;;;;;;;;;;4922994;29;20047;-89
2023/01/20 07:12:38;;;;;;;29.27;15.52;;;;;;;;;;4922804;29;20043;-88
2023/01/20 07:15:04;;;;;;;35.58;15.70;;;;;;;;;;4922829;29;20043;-88
2023/01/20 07:17:31;;;;;;;30.02;14.82;;;;;;;;;;4922724;29;20054;-89
2023/01/20 07:19:57;;;;;;;29.25;13.30;;;;;;;;;;4923162;29;20407;-89
2023/01/20 07:22:23;;;;;;;26.95;14.88;;;;;;;;;;4923644;29;20106;-89
2023/01/20 07:24:49;;;;;;;31.15;16.30;;;;;;;;;;4923715;29;20079;-91
2023/01/20 07:27:15;;;;;;;31.10;16.08;;;;;;;;;;4923294;29;20429;-89
2023/01/20 07:29:41;;;;;;;31.33;15.32;;;;;;;;;;4922612;29;20102;-89
2023/01/20 07:32:07;;;;;;;32.40;15.90;;;;;;;;;;4923027;29;20043;-91
2023/01/20 07:34:33;;;;;;;32.67;15.88;;;;;;;;;;4922868;29;20047;-89
2023/01/20 07:37:02;;;;;;;37.20;15.52;;;;;;;;;;4923284;29;20102;-90
2023/01/20 07:39:28;;;;;;;28.02;16.08;;;;;;;;;;4923340;29;20055;-89
2023/01/20 07:41:54;;;;;;;35.50;18.35;;;;;;;;;;4938662;29;20043;-89
2023/01/20 07:44:20;;;;;;;37.67;17.90;;;;;;;;;;4922290;29;20057;-89
2023/01/20 07:46:46;;;;;;;29.42;15.30;;;;;;;;;;4937939;29;20484;-89
2023/01/20 07:49:12;;;;;;;33.67;17.67;;;;;;;;;;4922423;29;20077;-88
2023/01/20 07:51:38;;;;;;;32.28;15.88;;;;;;;;;;4937801;29;20134;-88
2023/01/20 07:54:05;;;;;;;34.67;16.70;;;;;;;;;;4922229;29;20527;-89
2023/01/20 07:56:31;;;;;;;30.85;17.05;;;;;;;;;;4922227;29;20052;-88
2023/01/20 07:58:57;;;;;;;33.22;15.93;;;;;;;;;;4938238;29;20487;-88
2023/01/20 08:01:24;;;;;;;31.90;15.00;;;;;;;;;;4922599;29;20396;-90
2023/01/20 08:19:09;;;;;;;41.30;19.25;;;;;;;;;;5025776;23;20047;-92
2023/01/20 08:35:42;;;;;;;35.45;17.08;;;;;;;;;;5151356;23;20079;-90
2023/01/20 08:46:41;;;;;;;43.55;20.40;;;;;;;;;;4982660;23;20063;-91
2023/01/20 08:49:07;;;;;;;38.78;18.73;;;;;;;;;;4945822;28;20046;-90
2023/01/20 08:51:34;;;;;;;43.15;20.13;;;;;;;;;;4945592;28;20047;-93
2023/01/20 08:54:04;;;;;;;38.58;18.92;;;;;;;;;;4945431;28;20137;-93
2023/01/20 08:56:30;;;;;;;37.25;19.23;;;;;;;;;;4945781;28;20492;-91
2023/01/20 08:58:57;;;;;;;36.92;17.88;;;;;;;;;;4944871;28;20058;-91
2023/01/20 09:01:25;;;;;;;45.20;19.73;;;;;;;;;;4948282;28;20043;-91
2023/01/20 09:04:10;;;;;;;;;;;;;;;;;;;;;
2023/01/20 09:10:06;;;;;;;36.65;18.60;;;;;;;;;;4989967;28;20103;-92
2023/01/20 09:16:02;;;;;;;39.60;20.60;;;;;;;;;;4982234;28;20054;-90
2023/01/20 09:18:35;;;;;;;;;;;1.10;99.90;;;;;;4965033;28;20082;-91
2023/01/20 09:21:05;;;;;;;41.45;20.67;;;;;;;;;;4947685;28;19917;-91
2023/01/20 09:23:32;;;;;;;35.00;18.42;;;;;;;;;;4945297;28;20042;-90
2023/01/20 09:26:14;;;;;;;40.45;18.58;;;;;;;;;;4944958;28;20093;-90
2023/01/20 09:29:08;;;;;;;37.45;19.30;;;;;;;;;;4945788;28;20134;-91
2023/01/20 09:31:42;;;;;;;40.85;20.40;;;;;;;;;;4959638;28;20047;-90
2023/01/20 09:34:13;;;;;;;39.50;18.75;;;;;;;;;;4943134;28;20133;-90
2023/01/20 09:43:57;;;;;;;41.70;19.00;;;;;;;;;;4937954;29;20059;-89
2023/01/20 09:46:35;;;;;;;36.78;18.40;;;;;;;;;;4921530;29;20099;-89
2023/01/20 09:55:10;;;;;;;42.25;19.83;;;;;;;;;;4937264;29;19978;-89
2023/01/20 09:57:39;;;;;;;47.17;19.20;;;;;;;;;;4921511;29;20142;-89
2023/01/20 10:00:16;;;;;;;38.78;18.38;;;;;;;;;;4921776;29;20139;-89
2023/01/20 10:02:44;;;;;;;41.00;18.55;;;;;;;;;;4920527;29;20098;-89
2023/01/20 10:05:25;;;;;;;43.95;21.92;;;;;;;;;;4920794;29;20134;-90
2023/01/20 10:07:56;;;;;;;41.83;20.63;;;;;;;;;;4920222;29;20123;-90
2023/01/20 10:10:32;;;;;;;44.35;19.92;;;;;;;;;;4921023;29;20130;-90
2023/01/20 10:13:17;;;;;;;43.10;19.80;;;;;;;;;;4920666;29;20051;-89
2023/01/20 10:19:33;;;;;;;46.35;21.20;;;;;;;;;;4957838;29;20496;-90
2023/01/20 10:22:09;;;;;;;43.50;20.15;;;;;;;;;;4924970;29;20039;-89
2023/01/20 10:24:43;;;;;;;45.35;19.73;;;;;;;;;;4925410;29;20396;-90
2023/01/20 10:27:41;;;;;;;42.42;19.50;;;;;;;;;;4926485;29;20043;-89
2023/01/20 10:30:09;;;;;;;38.05;18.83;;;;;;;;;;4917887;29;20448;-90
2023/01/20 10:32:45;;;;;;;36.58;18.10;;;;;;;;;;4940639;29;20078;-90
2023/01/20 10:35:16;;;;;;;35.45;17.42;;;;;;;;;;4925160;29;20039;-89
2023/01/20 10:37:42;;;;;;;41.38;20.67;;;;;;;;;;4924422;29;20492;-89
2023/01/20 10:40:24;;;;;;;42.65;18.88;;;;;;;;;;4924592;29;20062;-90
2023/01/20 10:42:52;;;;;;;40.80;18.60;;;;;;;;;;4924600;29;20492;-89
2023/01/20 10:45:39;;;;;;;41.40;18.70;;;;;;;;;;4924257;29;20456;-91
2023/01/20 10:48:05;;;;;;;40.58;18.52;;;;;;;;;;4896501;29;20051;-89
2023/01/20 10:53:15;;;;;;;44.42;20.58;;;;;;;;;;4955651;28;20562;-90
2023/01/20 10:56:02;;;;;;;41.10;20.50;;;;;;;;;;4940917;29;20170;-90
2023/01/20 10:58:32;;;;;;;51.20;21.27;;;;;;;;;;4940307;29;20047;-90
2023/01/20 11:22:22;;;;;;;39.85;18.92;;;1.70;99.90;;;;;;4974025;28;20069;-92
2023/01/20 11:25:06;;;;;;;39.92;18.92;;;;;;;;;;4925142;29;20401;-91
2023/01/20 11:27:45;;;;;;;35.08;17.83;;;;;;;;;;4924121;29;20095;-91
2023/01/20 11:30:33;;;;;;;43.35;21.33;;;;;;;;;;4899458;23;20056;-92
2023/01/20 11:33:40;;;;;;;42.55;19.92;;;;;;;;;;4884628;29;20493;-91
2023/01/20 11:40:16;;;;;;;;;;;;;;;;;;;;;
2023/01/20 11:46:38;;;;;;;30.75;15.65;;;;;;;;;;4879755;29;20084;-91
2023/01/20 11:56:23;;;;;;;31.45;14.73;;;;;;;;;;4860495;29;20136;-91
2023/01/20 11:59:19;;;;;;;32.28;14.88;;;;;;;;;;4816451;29;20062;-92
2023/01/20 12:42:04;;;;;;;;;;;;;;;;;;;;;
2023/01/20 12:49:09;;;;;;;30.08;15.13;;;;;;;;;;4878960;29;20050;-91
2023/01/20 12:51:57;;;;;;;35.97;16.40;;;;;;;;;;4918861;29;20095;-89
2023/01/20 12:54:26;;;;;;;32.53;16.38;;;;;;;;;;4918535;29;20066;-89
2023/01/20 12:57:01;;;;;;;27.10;15.65;;;;;;;;;;4935054;29;20044;-89
2023/01/20 12:59:58;;;;;;;;;;;;;;;;;;;;;
2023/01/20 13:02:42;;;;;;;40.60;18.42;;;;;;;;;;4922129;29;20143;-90
2023/01/20 13:05:35;;;;;;;42.35;19.35;;;;;;;;;;4923009;29;20130;-89
2023/01/20 13:08:35;;;;;;;;;;;;;;;;;;;;;
2023/01/20 13:11:07;;;;;;;40.53;17.95;;;;;;;;;;4918657;29;20095;-88
2023/01/20 13:14:02;;;;;;;35.17;18.13;;;;;;;;;;4886737;29;20445;-89
2023/01/20 13:16:37;;;;;;;33.08;16.55;;;;;;;;;;4901964;29;20052;-90
2023/01/20 13:19:11;;;;;;;34.53;16.50;;;;;;;;;;4886555;29;20136;-89
2023/01/20 13:21:40;;;;;;;33.10;15.60;;;;;;;;;;4886469;29;20517;-89
2023/01/20 13:24:14;;;;;;;34.22;16.63;;;;;;;;;;4886987;29;20036;-89
2023/01/20 13:26:45;;;;;;;30.58;15.70;;;;;;;;;;4886842;29;20048;-89
2023/01/20 13:29:22;;;;;;;34.38;16.00;;;;;;;;;;4887023;29;20489;-89
2023/01/20 13:31:50;;;;;;;35.67;17.42;;;;;;;;;;4886458;29;20048;-87
2023/01/20 13:34:29;;;;;;;35.88;15.27;;;;;;;;;;4902414;29;20481;-90
2023/01/20 13:37:06;;;;;;;30.20;15.13;;;;;;;;;;4887221;29;20161;-93
2023/01/20 13:39:48;;;;;;;31.67;16.88;;;;;;;;;;4887665;29;20048;-91
2023/01/20 13:42:26;;;;;;;34.80;16.33;;;;;;;;;;4907373;29;20060;-92
2023/01/20 13:45:11;;;;;;;33.20;17.73;;;;;;;;;;4934130;29;20548;-89
2023/01/20 13:47:46;;;;;;;36.17;16.92;;;;;;;;;;4931533;29;20063;-90
2023/01/20 13:50:28;;;;;;;34.85;16.88;;;;;;;;;;4918285;29;20051;-89
2023/01/20 13:52:57;;;;;;;36.63;16.40;;;;;;;;;;4917224;29;20062;-90
2023/01/20 13:55:47;;;;;;;35.67;17.58;;;;;;;;;;4933113;29;20047;-90
2023/01/20 13:58:13;;;;;;;35.30;16.40;;;;;;;;;;4931202;29;20048;-94
2023/01/20 14:00:40;;;;;;;37.88;16.00;;;;;;;;;;4910013;29;20051;-90
2023/01/20 14:03:27;;;;;;;31.63;17.75;;;;;;;;;;4906941;29;20462;-89
2023/01/20 14:06:09;;;;;;;36.17;15.70;;;;;;;;;;4909398;29;20138;-89
2023/01/20 14:08:40;;;;;;;32.15;15.48;;;;;;;;;;4906208;29;20043;-92
2023/01/20 14:14:28;;;;;;;39.97;19.13;;;;;;;;;;4938687;29;20159;-89
2023/01/20 14:16:55;;;;;;;50.75;19.25;;;;;;;;;;4906270;29;20047;-94
2023/01/20 14:19:31;;;;;;;49.65;19.58;;;;;;;;;;4906584;29;20083;-92
2023/01/20 14:22:00;;;;;;;30.73;15.98;;;;;;;;;;4899497;29;20544;-92
2023/01/20 14:24:37;;;;;;;29.95;15.27;;;;;;;;;;4921616;29;20052;-92
2023/01/20 14:27:16;;;;;;;35.95;16.73;;;;;;;;;;4921468;29;20493;-92
2023/01/20 14:29:46;;;;;;;40.65;16.75;;;;;;;;;;4905526;29;20135;-89
2023/01/20 14:36:12;;;;;;;41.95;15.20;;;;;;;;;;4944980;29;20098;-92
2023/01/20 14:38:42;;;;;;;33.47;15.90;;;;;;;;;;4911074;29;20063;-92
2023/01/20 14:41:27;;;;;;;34.25;16.70;;;;;;;;;;4907426;29;20043;-95
2023/01/20 14:47:16;;;;;;;40.35;17.15;;;;;;;;;;4935126;29;20055;-92
2023/01/20 14:49:43;;;;;;;37.22;16.63;;;;;;;;;;4914614;29;20126;-96
2023/01/20 14:52:29;;;;;;;35.30;17.75;;;;;;;;;;4919572;29;20120;-90
2023/01/20 14:55:01;;;;;;;38.85;17.33;;;;;;;;;;5095179;23;20048;-96
2023/01/20 14:57:33;;;;;;;32.75;16.60;;;;;;;;;;4928323;29;20503;-95
2023/01/20 15:03:37;;;;;;;32.25;15.70;;;;;;;;;;4924404;29;20078;-92
2023/01/20 15:06:22;;;;;;;;;;;;;;;;;;;;;
2023/01/20 15:18:27;;;;;;;40.70;18.60;;;;;;;;;;5406717;23;20051;-93
2023/01/20 15:20:55;;;;;;;36.05;18.33;;;;;;;;;;4939813;29;20052;-92
2023/01/20 15:43:06;;;;;;;30.77;15.98;;;;;;;;;;5206467;23;20066;-96
2023/01/20 15:49:36;;;;;;;28.40;15.70;;;;;;;;;;4916854;29;20043;-94
2023/01/20 16:31:11;;;;;;;30.90;15.60;;;;;;;;;;5018020;23;20138;-96
2023/01/20 16:33:45;;;;;;;33.75;16.83;;;;;;;;;;4924167;29;20048;-96
2023/01/20 16:39:37;;;;;;;34.80;15.73;;;;;;;;;;4992189;23;20512;-93
2023/01/20 16:48:11;;;;;;;35.35;17.38;;;;;;;;;;4987143;23;20114;-93
2023/01/20 16:50:37;;;;;;;31.90;16.25;;;;;;;;;;4955262;29;20059;-95
2023/01/20 16:53:10;;;;;;;36.05;17.30;;;;;;;;;;5183180;23;20055;-96
2023/01/20 17:23:11;;;;;;;36.63;16.63;;;;;;;;;;5440631;23;20355;-91
2023/01/20 17:31:35;;;;;;;35.28;16.23;;;;;;;;;;5920109;23;20122;-90
2023/01/20 17:34:05;;;;;;;34.25;19.23;;;;;;;;;;4944520;28;20121;-92
2023/01/20 17:36:33;;;;;;;35.25;18.55;;;;;;;;;;4945279;28;20499;-91
2023/01/20 17:39:00;;;;;;;32.00;16.50;;;;;;;;;;4945536;28;20057;-93
2023/01/20 17:41:26;;;;;;;40.97;18.88;;;;;;;;;;4945142;28;20050;-95
2023/01/20 17:43:52;;;;;;;38.17;18.40;;;;;;;;;;4944704;28;20051;-93
2023/01/20 17:46:21;;;;;;;29.90;17.92;;;;;;;;;;4945254;28;20066;-92
2023/01/20 17:48:47;;;;;;;36.22;18.75;;;;;;;;;;4945150;28;20046;-94
2023/01/20 17:51:13;;;;;;;41.45;21.23;;;;;;;;;;4945501;28;20078;-96
2023/01/20 17:53:40;;;;;;;36.40;18.65;;;;;;;;;;4945009;28;20046;-94
2023/01/20 17:56:06;;;;;;;46.78;22.42;;;;;;;;;;4945151;28;20049;-92
2023/01/20 17:58:33;;;;;;;43.80;21.73;;;;;;;;;;4945183;28;20042;-93
2023/01/20 18:01:08;;;;;;;43.85;19.92;;;;;;;;;;4945239;28;20047;-93
2023/01/20 18:03:34;;;;;;;40.55;19.02;;;;;;;;;;4961032;28;20130;-93
2023/01/20 18:06:00;;;;;;;35.60;20.42;;;;;;;;;;4945335;28;20506;-94
2023/01/20 18:08:26;;;;;;;35.78;20.35;;;;;;;;;;4945613;28;20077;-92
2023/01/20 18:10:52;;;;;;;36.65;20.08;;;;;;;;;;4944935;28;20046;-92
2023/01/20 18:13:18;;;;;;;36.55;19.17;;;;;;;;;;4944438;28;20443;-93
2023/01/20 18:15:44;;;;;;;39.95;21.23;;;;;;;;;;4944728;28;20039;-95
2023/01/20 18:18:10;;;;;;;36.55;20.27;;;;;;;;;;4947350;28;20043;-91
2023/01/20 18:20:36;;;;;;;36.90;20.67;;;;;;;;;;4950336;28;20046;-95
2023/01/20 18:23:02;;;;;;;36.28;19.63;;;;;;;;;;4951758;28;20053;-94
2023/01/20 18:25:29;;;;;;;35.22;19.05;;;;;;;;;;4954272;28;20096;-93
2023/01/20 18:27:55;;;;;;;33.75;18.98;;;;;;;;;;4948533;29;20079;-92
2023/01/20 18:30:21;;;;;;;36.63;21.65;;;;;;;;;;4951109;29;20047;-92
2023/01/20 18:32:47;;;;;;;41.00;21.55;;;;;;;;;;4931932;29;20141;-91
2023/01/20 18:35:13;;;;;;;41.05;20.08;;;;;;;;;;4931051;29;20126;-91
2023/01/20 18:37:39;;;;;;;40.28;20.48;;;;;;;;;;4923937;29;20051;-91
2023/01/20 18:40:06;;;;;;;37.42;20.67;;;;;;;;;;4923768;29;20493;-90
2023/01/20 18:42:32;;;;;;;40.67;20.95;;;;;;;;;;4924078;29;20047;-90
2023/01/20 18:44:58;;;;;;;38.05;21.10;;;;;;;;;;4923744;29;20138;-91
2023/01/20 18:47:24;;;;;;;40.97;20.65;;;;;;;;;;4924059;29;20059;-91
2023/01/20 18:49:50;;;;;;;33.40;19.33;;;;;;;;;;4924445;29;20078;-90
2023/01/20 18:58:26;;;;;;;38.17;20.15;;;;;;;;;;4975345;28;20101;-91
2023/01/20 19:05:03;;;;;;;37.53;20.50;;;;;;;;;;4977284;28;20062;-92
2023/01/20 19:07:44;;;;;;;40.80;20.05;;;;;;;;;;4960299;28;20093;-91
2023/01/20 19:10:16;;;;;;;36.40;19.75;;;;;;;;;;4958376;28;20610;-91
2023/01/20 19:12:53;;;;;;;33.42;19.30;;;;;;;;;;4927997;28;20082;-91
2023/01/20 19:19:51;;;;;;;;;;;;;;;;;;;;;
2023/01/20 19:26:19;;;;;;;35.13;17.35;;;;;;;;;;4982945;23;20692;-91
2023/01/20 19:33:08;;;;;;;;;;;1.50;99.90;;;;;;4938843;29;20095;-93
2023/01/20 19:36:00;;;;;;;41.13;19.73;;;;;;;;;;4906528;29;20415;-89
2023/01/20 19:39:03;;;;;;;36.97;20.20;;;;;;;;;;4868966;29;20145;-91
2023/01/20 19:52:09;;;;;;;29.83;17.05;;;;;;;;;;4919578;29;20055;-91
2023/01/20 19:55:04;;;;;;;;;;;;;;;;;;;;;